Time;durP1;ratioP1;P1;durP2;ratioP2;P2;SDS_P1;SDS_P2;PMS_P1;PMS_P2;Temp;Humidity;BMP_temperature;BMP_pressure;BME280_temperature;BME280_humidity;BME280_pressure;Samples;Min_cycle;Max_cycle;Signal;HPM_P1;HPM_P2
2022/08/15 00:00:55;;;;;;;;;9.33;7.67;;;;;25.66;51.94;100231.25;5057208;28;45537;-82
2022/08/15 00:03:24;;;;;;;;;8.00;8.00;;;;;25.68;51.82;100237.38;5057903;28;45559;-82
2022/08/15 00:05:51;;;;;;;;;7.00;7.00;;;;;25.67;51.87;100233.81;5057029;28;46210;-82
2022/08/15 00:08:17;;;;;;;;;9.67;7.33;;;;;25.64;52.28;100234.16;5057431;28;45395;-82
2022/08/15 00:10:47;;;;;;;;;5.33;5.33;;;;;25.63;52.13;100235.19;5064029;28;45387;-82
2022/08/15 00:13:22;;;;;;;;;9.00;8.00;;;;;25.63;51.79;100234.34;5077774;28;45515;-82
2022/08/15 00:15:49;;;;;;;;;8.00;7.00;;;;;25.63;51.92;100234.34;5077034;28;47936;-82
2022/08/15 00:18:16;;;;;;;;;8.00;8.00;;;;;25.64;51.72;100234.16;5077053;28;45522;-82
2022/08/15 00:20:42;;;;;;;;;10.33;8.67;;;;;25.60;51.80;100221.06;5059031;28;45529;-82
2022/08/15 00:23:17;;;;;;;;;9.33;7.00;;;;;25.66;51.21;100233.97;5077768;28;45547;-82
2022/08/15 00:25:47;;;;;;;;;8.00;8.00;;;;;25.67;52.00;100222.88;5077262;28;46311;-82
2022/08/15 00:28:13;;;;;;;;;8.33;8.33;;;;;25.68;51.43;100229.19;5077035;28;45433;-82
2022/08/15 00:30:40;;;;;;;;;8.00;8.00;;;;;25.70;51.93;100221.69;5077061;28;45493;-82
2022/08/15 00:33:06;;;;;;;;;8.67;8.33;;;;;25.68;51.46;100229.19;5077528;28;45567;-81
2022/08/15 00:35:41;;;;;;;;;12.00;11.00;;;;;25.65;51.92;100219.47;5076771;28;45459;-82
2022/08/15 00:38:08;;;;;;;;;8.33;8.33;;;;;25.66;51.75;100231.25;5077063;28;45567;-82
2022/08/15 00:41:39;;;;;;;;;9.33;9.33;;;;;25.66;51.88;100232.13;5059643;28;45362;-82
2022/08/15 00:43:21;;;;;;;;;10.00;10.00;;;;;25.63;51.28;100228.88;5077279;28;45641;-82
2022/08/15 00:45:47;;;;;;;;;10.00;9.00;;;;;25.56;51.88;100219.69;5077056;28;46178;-82
2022/08/15 00:50:57;;;;;;;;;10.33;10.33;;;;;25.49;51.94;100219.56;5077144;28;45487;-82
2022/08/15 00:53:23;;;;;;;;;13.00;10.00;;;;;25.49;52.07;100219.56;5077170;28;45974;-83
2022/08/15 00:55:49;;;;;;;;;13.00;10.00;;;;;25.49;52.11;100217.66;5076660;28;46194;-82
2022/08/15 00:58:15;;;;;;;;;7.67;7.67;;;;;25.50;52.09;100221.28;5092796;27;45628;-82
2022/08/15 01:00:45;;;;;;;;;12.00;11.00;;;;;25.50;51.86;100210.38;5075562;28;45436;-82
2022/08/15 01:03:18;;;;;;;;;10.67;9.67;;;;;25.49;51.88;100225.84;5076670;28;45576;-82
2022/08/15 01:05:47;;;;;;;;;10.67;10.67;;;;;25.47;51.65;100216.16;5076320;28;48837;-82
2022/08/15 01:08:15;;;;;;;;;12.33;10.67;;;;;25.41;51.85;100217.72;5076688;28;45505;-82
2022/08/15 01:10:41;;;;;;;;;15.00;9.33;;;;;25.41;52.06;100225.06;5076518;27;45490;-82
2022/08/15 01:13:07;;;;;;;;;14.33;12.33;;;;;25.37;52.42;100223.72;5076865;27;45314;-82
2022/08/15 01:15:32;;;;;;;;;12.67;10.67;;;;;25.34;52.40;100221.34;5076607;28;46168;-82
2022/08/15 01:17:58;;;;;;;;;13.00;12.67;;;;;25.31;52.40;100225.28;5075067;28;45448;-82
2022/08/15 01:20:28;;;;;;;;;12.00;11.00;;;;;25.27;52.40;100227.50;5076595;28;45459;-82
2022/08/15 01:23:12;;;;;;;;;13.00;11.33;;;;;25.27;52.40;100232.09;5076769;28;45521;-81
2022/08/15 01:25:43;;;;;;;;;12.00;12.00;;;;;25.24;52.31;100233.31;5076301;28;46381;-82
2022/08/15 01:28:16;;;;;;;;;10.00;10.00;;;;;25.23;52.16;100234.31;5076474;27;45511;-82
2022/08/15 01:30:49;;;;;;;;;11.67;11.67;;;;;25.17;51.87;100228.66;5077050;28;45436;-82
2022/08/15 01:33:15;;;;;;;;;11.00;10.33;;;;;25.14;52.48;100231.75;5079899;28;45443;-82
2022/08/15 01:35:45;;;;;;;;;9.33;9.00;;;;;25.05;52.14;100220.88;5079936;28;46154;-81
2022/08/15 01:38:27;;;;;;;;;13.00;10.67;;;;;25.02;52.08;100223.09;5079949;28;45432;-82
2022/08/15 01:41:04;;;;;;;;;12.00;10.00;;;;;24.99;52.60;100220.72;5079976;28;45364;-82
2022/08/15 01:43:36;;;;;;;;;13.67;11.67;;;;;24.98;52.18;100222.59;5072794;28;45471;-82
2022/08/15 01:46:06;;;;;;;;;11.00;11.00;;;;;24.93;52.77;100227.69;5040836;28;47469;-82
2022/08/15 01:48:45;;;;;;;;;16.33;11.67;;;;;24.80;52.92;100200.13;5059362;28;45481;-81
2022/08/15 01:51:12;;;;;;;;;10.00;8.00;;;;;24.87;52.83;100220.22;5059439;28;45418;-82
2022/08/15 01:53:46;;;;;;;;;8.33;8.33;;;;;24.89;52.42;100217.31;5059992;28;45490;-81
2022/08/15 01:56:19;;;;;;;;;10.33;10.33;;;;;24.85;52.50;100216.81;5059046;28;47222;-82
2022/08/15 01:58:45;;;;;;;;;9.33;8.67;;;;;24.86;52.87;100218.50;5059194;28;45500;-82
2022/08/15 02:01:17;;;;;;;;;12.67;12.00;;;;;24.83;52.79;100214.25;5059153;28;45435;-82
2022/08/15 02:03:45;;;;;;;;;10.33;10.00;;;;;24.83;52.65;100214.25;5059596;28;45471;-82
2022/08/15 02:06:24;;;;;;;;;13.33;12.67;;;;;24.79;52.65;100212.91;5058856;28;47310;-82
2022/08/15 02:08:52;;;;;;;;;13.00;12.67;;;;;24.75;52.90;100199.81;5058959;28;45472;-81
2022/08/15 02:11:21;;;;;;;;;12.00;11.33;;;;;24.79;52.69;100206.59;5070994;28;45448;-82
2022/08/15 02:13:48;;;;;;;;;16.00;12.00;;;;;24.77;53.06;100206.78;5079796;28;45768;-81
2022/08/15 02:16:16;;;;;;;;;10.67;10.33;;;;;24.70;53.10;100199.44;5078937;28;45548;-81
2022/08/15 02:18:42;;;;;;;;;13.00;12.67;;;;;24.73;53.28;100210.03;5079198;28;45399;-81
2022/08/15 02:21:07;;;;;;;;;11.33;11.00;;;;;24.72;53.33;100203.72;5079363;28;45529;-81
2022/08/15 02:23:34;;;;;;;;;11.00;10.00;;;;;24.71;53.22;100193.84;5079789;28;45499;-82
2022/08/15 02:25:59;;;;;;;;;10.00;10.00;;;;;24.72;53.49;100192.81;5061092;28;47100;-81
2022/08/15 02:28:25;;;;;;;;;16.67;11.33;;;;;24.61;53.03;100185.00;5079171;28;45382;-82
2022/08/15 02:30:53;;;;;;;;;11.33;11.33;;;;;24.69;52.71;100200.50;5079264;28;45450;-81
2022/08/15 02:33:19;;;;;;;;;12.33;11.33;;;;;24.68;52.63;100190.59;5079541;28;45443;-81
2022/08/15 02:35:44;;;;;;;;;11.33;11.33;;;;;24.65;52.95;100186.34;5079242;28;47628;-82
2022/08/15 02:38:10;;;;;;;;;12.33;11.67;;;;;24.66;53.01;100187.22;5079296;28;45423;-81
2022/08/15 02:40:35;;;;;;;;;11.00;10.00;;;;;24.66;52.64;100188.06;5079296;28;45938;-81
2022/08/15 02:43:04;;;;;;;;;12.67;11.67;;;;;24.66;53.25;100181.78;5075840;28;45494;-81
2022/08/15 02:45:34;;;;;;;;;10.33;10.33;;;;;24.64;52.66;100179.22;5058300;28;47282;-81
2022/08/15 02:48:00;;;;;;;;;12.00;10.67;;;;;24.61;53.09;100183.13;5058579;28;45450;-81
2022/08/15 02:50:25;;;;;;;;;11.33;11.33;;;;;24.59;52.65;100173.44;5058427;28;45381;-81
2022/08/15 02:52:50;;;;;;;;;9.00;9.00;;;;;24.60;52.67;100172.38;5058733;28;45493;-81
2022/08/15 02:55:16;;;;;;;;;12.33;10.33;;;;;24.59;52.91;100174.28;5056786;28;46767;-81
2022/08/15 02:57:41;;;;;;;;;10.67;10.00;;;;;24.58;53.16;100174.44;5058731;28;45474;-81
2022/08/15 03:00:12;;;;;;;;;12.33;9.33;;;;;24.57;52.81;100170.03;5058114;28;45464;-81
2022/08/15 03:03:09;;;;;;;;;10.33;9.33;;;;;24.56;52.55;100171.03;5058710;28;45324;-81
2022/08/15 03:05:38;;;;;;;;;11.33;10.00;;;;;24.55;52.65;100169.34;5045378;28;46219;-81
2022/08/15 03:08:04;;;;;;;;;11.00;11.00;;;;;24.55;53.07;100177.50;5058106;28;45433;-81
2022/08/15 03:10:30;;;;;;;;;12.00;10.33;;;;;24.53;52.61;100180.41;5045079;28;45571;-81
2022/08/15 03:13:14;;;;;;;;;11.00;9.33;;;;;24.50;52.56;100169.84;5078662;28;45540;-81
2022/08/15 03:15:53;;;;;;;;;8.67;8.67;;;;;24.49;53.18;100170.00;5078039;28;46206;-81
2022/08/15 03:18:20;;;;;;;;;8.00;8.00;;;;;24.47;53.29;100172.94;5078198;28;46352;-81
2022/08/15 03:20:47;;;;;;;;;12.00;11.33;;;;;24.39;53.29;100157.38;5078577;28;45419;-81
2022/08/15 03:23:13;;;;;;;;;12.33;11.67;;;;;24.45;53.65;100180.38;5078692;28;45425;-71
2022/08/15 03:25:44;;;;;;;;;14.67;13.33;;;;;24.42;53.29;100175.28;5078060;28;45450;-72
2022/08/15 03:28:10;;;;;;;;;12.33;11.33;;;;;24.41;53.50;100176.28;5077710;28;45398;-71
2022/08/15 03:30:37;;;;;;;;;10.33;10.00;;;;;24.39;53.46;100183.78;5078184;28;45481;-71
2022/08/15 03:33:04;;;;;;;;;12.00;10.33;;;;;24.40;53.16;100175.44;5077187;28;45540;-71
2022/08/15 03:35:36;;;;;;;;;10.00;10.00;;;;;24.38;53.77;100174.75;5077864;28;47281;-71
2022/08/15 03:38:02;;;;;;;;;10.33;10.33;;;;;24.36;53.00;100171.34;5077833;28;45472;-71
2022/08/15 03:40:28;;;;;;;;;13.33;11.00;;;;;24.35;53.31;100177.84;5077898;28;45491;-71
2022/08/15 03:43:01;;;;;;;;;9.67;8.67;;;;;24.35;53.09;100169.66;5075892;28;45658;-72
2022/08/15 03:45:27;;;;;;;;;9.00;9.00;;;;;24.34;53.14;100170.66;5057427;28;45512;-71
2022/08/15 03:47:54;;;;;;;;;11.67;9.67;;;;;24.33;53.02;100162.69;5057556;28;45493;-71
2022/08/15 03:50:21;;;;;;;;;12.00;12.00;;;;;24.32;52.50;100167.25;5057776;28;45562;-71
2022/08/15 03:52:52;;;;;;;;;8.67;8.00;;;;;24.31;53.02;100162.00;5057476;28;45490;-71
2022/08/15 03:55:20;;;;;;;;;12.33;11.00;;;;;24.32;52.89;100161.81;5056718;28;46763;-71
2022/08/15 03:57:47;;;;;;;;;12.67;10.00;;;;;24.21;52.71;100145.84;5057266;28;45395;-71
2022/08/15 04:00:15;;;;;;;;;11.00;11.00;;;;;24.31;52.24;100162.84;5057507;28;45398;-71
2022/08/15 04:02:40;;;;;;;;;11.67;9.33;;;;;24.32;52.00;100159.09;5057667;28;45422;-71
2022/08/15 04:05:07;;;;;;;;;9.00;8.00;;;;;24.22;52.18;100134.75;5057202;28;45444;-71
2022/08/15 04:07:34;;;;;;;;;11.00;10.33;;;;;24.30;52.24;100150.22;5057177;28;45402;-71
2022/08/15 04:09:59;;;;;;;;;11.67;10.00;;;;;24.28;52.34;100151.44;5057626;28;45427;-71
2022/08/15 04:12:34;;;;;;;;;12.00;11.67;;;;;24.27;52.42;100150.59;5077909;28;45630;-71
2022/08/15 04:15:00;;;;;;;;;10.00;10.00;;;;;24.20;52.42;100144.97;5077308;28;47000;-71
2022/08/15 04:17:26;;;;;;;;;7.67;7.67;;;;;24.27;52.21;100149.75;5077403;28;45488;-71
2022/08/15 04:19:52;;;;;;;;;13.00;10.00;;;;;24.27;51.99;100144.28;5077275;28;45528;-71
2022/08/15 04:22:28;;;;;;;;;14.00;12.00;;;;;24.25;52.08;100149.06;5059843;28;45615;-71
2022/08/15 04:24:53;;;;;;;;;10.00;10.00;;;;;24.24;52.13;100142.75;5077297;28;46558;-81
2022/08/15 04:27:18;;;;;;;;;12.33;10.00;;;;;24.22;52.00;100150.25;5077060;28;45458;-81
2022/08/15 04:29:44;;;;;;;;;11.67;10.00;;;;;24.20;52.42;100141.41;5077369;28;45516;-81
2022/08/15 04:32:12;;;;;;;;;10.00;9.33;;;;;24.13;52.06;100127.59;5077510;28;45453;-81
2022/08/15 04:34:38;;;;;;;;;10.67;10.67;;;;;23.95;52.59;100106.00;5077171;28;47139;-81
2022/08/15 04:37:03;;;;;;;;;9.33;9.00;;;;;24.09;52.28;100131.72;5077014;28;45437;-81
2022/08/15 04:39:29;;;;;;;;;12.00;11.00;;;;;24.17;52.36;100141.75;5077317;28;45414;-81
2022/08/15 04:41:55;;;;;;;;;10.67;8.67;;;;;24.17;52.47;100147.19;5076955;28;45386;-81
2022/08/15 04:44:20;;;;;;;;;9.00;9.00;;;;;24.16;52.58;100150.91;5062502;28;46508;-81
2022/08/15 04:46:46;;;;;;;;;9.33;8.67;;;;;24.13;52.40;100141.22;5056677;28;45357;-81
2022/08/15 04:49:12;;;;;;;;;14.33;9.33;;;;;24.15;52.57;100149.22;5056764;28;46009;-81
2022/08/15 04:51:37;;;;;;;;;9.67;9.00;;;;;24.13;52.44;100149.38;5057122;28;45320;-80
2022/08/15 04:54:04;;;;;;;;;13.67;11.00;;;;;24.12;52.23;100147.69;5056509;28;45648;-81
2022/08/15 04:56:29;;;;;;;;;10.00;10.00;;;;;24.11;51.95;100139.69;5056294;28;45406;-80
2022/08/15 04:58:55;;;;;;;;;10.00;8.33;;;;;24.11;52.15;100140.53;5056575;28;45429;-80
2022/08/15 05:01:20;;;;;;;;;10.00;10.00;;;;;24.11;51.75;100139.69;5056986;28;45453;-80
2022/08/15 05:03:45;;;;;;;;;9.33;9.33;;;;;24.09;51.90;100136.28;5038393;28;48579;-81
2022/08/15 05:06:11;;;;;;;;;11.33;9.67;;;;;24.08;52.28;100131.88;5056392;28;45430;-81
2022/08/15 05:08:38;;;;;;;;;11.67;10.67;;;;;23.97;52.15;100117.56;5056422;28;45441;-80
2022/08/15 05:11:10;;;;;;;;;9.33;8.00;;;;;24.09;52.22;100128.13;5048112;28;45516;-80
2022/08/15 05:13:38;;;;;;;;;11.00;9.67;;;;;24.07;52.16;100122.84;5076610;28;47261;-80
2022/08/15 05:16:07;;;;;;;;;8.00;5.00;;;;;24.06;51.61;100123.03;5076655;28;45705;-80
2022/08/15 05:18:34;;;;;;;;;8.00;8.00;;;;;24.05;52.13;100119.44;5076573;28;45375;-81
2022/08/15 05:21:00;;;;;;;;;10.00;8.67;;;;;24.03;52.06;100113.31;5058589;28;45508;-81
2022/08/15 05:23:25;;;;;;;;;10.00;10.00;;;;;23.93;51.89;100097.16;5076758;28;46429;-81
2022/08/15 05:25:56;;;;;;;;;8.00;7.00;;;;;24.00;51.88;100119.13;5076742;28;45375;-81
2022/08/15 05:28:23;;;;;;;;;11.67;8.33;;;;;24.02;51.65;100127.94;5058538;28;45656;-81
2022/08/15 05:30:49;;;;;;;;;7.67;7.67;;;;;24.00;51.63;100122.69;5076971;28;45402;-80
2022/08/15 05:33:19;;;;;;;;;8.67;8.67;;;;;24.00;52.07;100124.56;5076148;28;46170;-81
2022/08/15 05:35:51;;;;;;;;;9.67;9.67;;;;;24.01;51.70;100121.66;5076400;28;46393;-80
2022/08/15 05:38:21;;;;;;;;;8.67;8.67;;;;;23.99;51.78;100120.13;5076146;28;45428;-81
2022/08/15 05:41:10;;;;;;;;;13.33;12.33;;;;;23.97;52.33;100106.66;5076617;28;45568;-81
2022/08/15 05:43:38;;;;;;;;;10.67;9.00;;;;;23.98;52.26;100111.09;5046338;28;47371;-80
2022/08/15 05:46:31;;;;;;;;;8.33;7.67;;;;;23.99;51.79;100117.41;5035775;28;45431;-81
2022/08/15 05:49:22;;;;;;;;;11.00;9.33;;;;;23.95;52.18;100116.91;5035920;28;45466;-81
2022/08/15 05:51:56;;;;;;;;;10.00;8.00;;;;;23.96;51.97;100120.47;5036134;28;45506;-80
2022/08/15 05:54:40;;;;;;;;;8.00;8.00;;;;;23.97;52.05;100119.44;5035348;28;47228;-80
2022/08/15 05:57:39;;;;;;;;;10.00;8.00;;;;;23.99;52.16;100117.41;5035564;28;45418;-81
2022/08/15 06:00:09;;;;;;;;;9.00;9.00;;;;;24.04;52.60;100125.91;5035793;28;45508;-80
2022/08/15 06:02:39;;;;;;;;;13.00;10.33;;;;;23.99;51.94;100112.78;5035915;28;45379;-81
2022/08/15 06:05:25;;;;;;;;;11.33;7.67;;;;;24.03;52.43;100137.81;5017589;28;47521;-81
2022/08/15 06:07:52;;;;;;;;;18.67;10.33;;;;;24.03;52.53;100135.09;5035167;28;45493;-81
2022/08/15 06:10:25;;;;;;;;;9.00;9.00;;;;;23.91;52.43;100118.25;5041833;28;45551;-81
2022/08/15 06:13:03;;;;;;;;;4.67;4.33;;;;;24.04;52.45;100133.22;5076072;28;45476;-81
2022/08/15 06:15:51;;;;;;;;;7.67;7.00;;;;;24.05;52.36;100127.63;5075760;28;46557;-80
2022/08/15 06:18:19;;;;;;;;;14.00;10.33;;;;;24.05;52.42;100122.19;5078592;28;45413;-80
2022/08/15 06:21:05;;;;;;;;;9.00;7.33;;;;;24.09;52.52;100119.94;5079467;28;45481;-81
2022/08/15 06:23:54;;;;;;;;;9.67;8.33;;;;;24.07;52.04;100117.41;5079339;28;45517;-71
2022/08/15 06:26:37;;;;;;;;;10.00;10.00;;;;;24.13;52.22;100121.31;5079039;28;45416;-71
2022/08/15 06:29:15;;;;;;;;;9.67;9.00;;;;;24.14;52.22;100115.72;5079197;28;45402;-71
2022/08/15 06:32:04;;;;;;;;;7.00;7.00;;;;;24.15;52.55;100119.28;5079224;28;45444;-71
2022/08/15 06:34:56;;;;;;;;;10.67;10.33;;;;;24.18;52.57;100113.47;5079429;28;45496;-71
2022/08/15 06:37:34;;;;;;;;;12.00;10.00;;;;;24.23;52.50;100120.13;5078587;28;45349;-72
2022/08/15 06:40:16;;;;;;;;;9.33;9.00;;;;;24.26;51.99;100121.66;5078769;28;45519;-71
2022/08/15 06:42:44;;;;;;;;;8.00;7.00;;;;;24.25;52.65;100119.94;5078267;28;45343;-71
2022/08/15 06:45:22;;;;;;;;;11.00;11.00;;;;;24.22;52.35;100102.06;5058709;28;45585;-71
2022/08/15 06:47:50;;;;;;;;;8.33;8.33;;;;;24.30;52.46;100114.81;5058664;28;47026;-71
2022/08/15 06:50:20;;;;;;;;;9.33;7.67;;;;;24.29;52.23;100112.28;5058511;28;45690;-71
2022/08/15 06:52:52;;;;;;;;;10.33;9.67;;;;;24.35;52.24;100115.19;5058374;28;45466;-71
2022/08/15 06:55:20;;;;;;;;;14.67;11.00;;;;;24.26;51.74;100099.03;5058734;28;45615;-71
2022/08/15 06:58:03;;;;;;;;;10.33;8.67;;;;;24.39;51.85;100112.94;5058040;28;45477;-71
2022/08/15 07:00:43;;;;;;;;;8.67;8.67;;;;;24.43;51.92;100119.75;5058426;28;45414;-71
2022/08/15 07:03:11;;;;;;;;;11.33;10.00;;;;;24.49;52.02;100121.84;5058381;28;45457;-71
2022/08/15 07:05:48;;;;;;;;;10.00;7.33;;;;;24.49;51.50;100126.41;5040421;28;45634;-71
2022/08/15 07:08:33;;;;;;;;;14.33;10.00;;;;;24.53;51.45;100120.44;5058062;28;46121;-71
2022/08/15 07:11:09;;;;;;;;;9.33;7.67;;;;;24.58;51.64;100122.66;5066974;28;45405;-71
2022/08/15 07:13:58;;;;;;;;;10.00;7.00;;;;;24.56;51.44;100111.94;5078524;28;45453;-71
2022/08/15 07:16:38;;;;;;;;;9.67;8.00;;;;;24.63;51.09;100123.84;5078617;28;45364;-72
2022/08/15 07:19:05;;;;;;;;;8.67;8.67;;;;;24.70;51.45;100129.47;5077141;28;47228;-72
2022/08/15 07:21:30;;;;;;;;;10.33;9.33;;;;;24.74;51.31;100121.78;5077969;28;45590;-71
2022/08/15 07:24:07;;;;;;;;;8.67;7.67;;;;;24.72;51.40;100116.50;5060291;28;45478;-71
2022/08/15 07:26:59;;;;;;;;;10.00;9.00;;;;;24.82;51.12;100129.94;5078499;28;45513;-71
2022/08/15 07:29:36;;;;;;;;;9.33;9.33;;;;;24.83;50.42;100135.19;5076790;28;46305;-71
2022/08/15 07:32:28;;;;;;;;;8.33;6.33;;;;;24.82;50.81;100127.22;5077973;28;45561;-71
2022/08/15 07:34:55;;;;;;;;;9.67;7.67;;;;;24.86;50.86;100134.00;5078026;28;45491;-71
2022/08/15 07:37:23;;;;;;;;;8.67;7.33;;;;;24.93;50.34;100132.28;5078112;28;45466;-72
2022/08/15 07:39:59;;;;;;;;;9.33;8.67;;;;;24.99;50.96;100128.00;5077742;28;46356;-71
2022/08/15 07:42:25;;;;;;;;;8.00;8.00;;;;;25.02;50.41;100122.19;5077772;28;45434;-71
2022/08/15 07:44:53;;;;;;;;;10.67;8.00;;;;;25.08;50.07;100121.50;5059392;28;45387;-72
2022/08/15 07:47:27;;;;;;;;;8.67;8.67;;;;;25.13;50.46;100120.97;5057918;28;45949;-71
2022/08/15 07:50:21;;;;;;;;;8.00;8.00;;;;;25.22;49.70;100130.84;5057132;28;46433;-71
2022/08/15 07:53:04;;;;;;;;;10.00;8.00;;;;;25.28;49.35;100119.22;5057562;28;45405;-71
2022/08/15 07:55:32;;;;;;;;;10.00;7.00;;;;;25.21;48.90;100101.84;5057579;28;45403;-71
2022/08/15 07:58:02;;;;;;;;;5.67;5.67;;;;;25.30;48.58;100116.31;5057585;28;45341;-72
2022/08/15 08:00:31;;;;;;;;;6.00;6.00;;;;;25.37;48.63;100122.75;5057468;28;45452;-72
2022/08/15 08:03:02;;;;;;;;;5.33;4.33;;;;;25.38;47.27;100124.44;5057201;28;45458;-71
2022/08/15 08:05:34;;;;;;;;;4.00;2.00;;;;;25.32;47.76;100098.75;5057226;28;45446;-72
2022/08/15 08:08:04;;;;;;;;;8.00;6.67;;;;;25.42;47.46;100123.06;5057522;28;45394;-71
2022/08/15 08:10:29;;;;;;;;;5.33;5.33;;;;;25.43;46.91;100130.25;5043854;28;46041;-71
2022/08/15 08:13:23;;;;;;;;;5.33;4.67;;;;;25.49;47.35;100132.22;5077403;28;45390;-71
2022/08/15 08:15:55;;;;;;;;;6.67;4.00;;;;;25.59;46.98;100124.69;5077341;28;45422;-71
2022/08/15 08:18:41;;;;;;;;;5.00;4.00;;;;;25.74;46.79;100119.28;5077621;28;45497;-71
2022/08/15 08:21:14;;;;;;;;;5.00;4.00;;;;;25.83;46.72;100125.56;5077041;28;46395;-72
2022/08/15 08:23:49;;;;;;;;;4.67;4.33;;;;;25.98;46.49;100120.19;5059512;28;45470;-71
2022/08/15 08:26:17;;;;;;;;;4.67;3.00;;;;;26.05;46.59;100124.72;5075994;28;45392;-71
2022/08/15 08:28:59;;;;;;;;;5.00;4.00;;;;;26.06;46.31;100126.44;5077542;28;45410;-72
2022/08/15 08:31:43;;;;;;;;;0.67;0.67;;;;;26.19;46.58;100117.59;5077056;28;47526;-72
2022/08/15 08:34:18;;;;;;;;;5.00;5.00;;;;;26.27;45.85;100120.28;5076820;28;45433;-71
2022/08/15 08:36:59;;;;;;;;;4.67;4.67;;;;;26.40;45.84;100119.63;5077362;28;45375;-71
2022/08/15 08:39:55;;;;;;;;;5.00;5.00;;;;;28.29;42.04;100122.69;5077093;28;45589;-71
2022/08/15 08:43:13;;;;;;;;;4.33;4.33;;;;;29.17;40.08;100107.47;5076804;28;45482;-71
2022/08/15 08:46:05;;;;;;;;;8.67;6.67;;;;;31.94;35.05;100108.50;4935927;28;45631;-71
2022/08/15 08:49:02;;;;;;;;;3.67;3.67;;;;;30.45;36.57;100115.78;4919777;28;45498;-71
2022/08/15 08:51:38;;;;;;;;;6.33;6.33;;;;;29.14;38.79;100126.25;4936343;28;45488;-71
2022/08/15 08:54:43;;;;;;;;;5.00;5.00;;;;;28.32;40.88;100122.28;4935699;28;46200;-71
2022/08/15 08:57:16;;;;;;;;;5.00;5.00;;;;;27.88;41.26;100140.63;4935159;28;45433;-71
2022/08/15 09:00:02;;;;;;;;;5.00;5.00;;;;;27.75;42.08;100133.09;4936178;28;45566;-71
2022/08/15 09:02:35;;;;;;;;;5.00;4.33;;;;;27.68;42.00;100128.59;4935993;28;45585;-71
2022/08/15 09:05:11;;;;;;;;;4.33;4.33;;;;;27.76;41.80;100133.94;4935757;28;46337;-71
2022/08/15 09:07:46;;;;;;;;;8.67;5.33;;;;;27.42;42.50;100135.44;4935705;28;45474;-71
2022/08/15 09:10:19;;;;;;;;;5.67;5.67;;;;;27.25;42.40;100126.59;4937962;28;45520;-71
2022/08/15 09:15:39;;;;;;;;;5.00;5.00;;;;;29.02;40.45;100131.44;4954612;28;45679;-71
2022/08/15 09:18:14;;;;;;;;;6.00;6.00;;;;;31.33;36.44;100123.66;4954933;28;45451;-71
2022/08/15 09:20:41;;;;;;;;;8.00;7.00;;;;;33.15;32.72;100128.44;4959018;28;45495;-71
2022/08/15 09:23:11;;;;;;;;;9.33;5.00;;;;;32.86;32.63;100127.25;5036593;28;45500;-71
2022/08/15 09:25:47;;;;;;;;;5.67;4.67;;;;;31.84;34.34;100121.91;5035792;28;45390;-71
2022/08/15 09:28:20;;;;;;;;;5.33;4.33;;;;;30.85;35.39;100126.75;5018197;28;45533;-71
2022/08/15 09:30:47;;;;;;;;;6.00;5.33;;;;;30.48;36.84;100118.13;5035996;28;45452;-71
2022/08/15 09:33:33;;;;;;;;;6.67;6.67;;;;;30.09;36.69;100128.03;5035987;28;45470;-71
2022/08/15 09:36:07;;;;;;;;;5.00;5.00;;;;;30.03;37.37;100119.78;5035582;28;47129;-71
2022/08/15 09:38:59;;;;;;;;;4.33;4.33;;;;;31.79;35.15;100120.91;5035741;28;45454;-71
2022/08/15 09:42:06;;;;;;;;;4.00;4.00;;;;;33.25;32.48;100116.88;5047193;28;45350;-71
2022/08/15 09:45:07;;;;;;;;;7.00;5.67;;;;;34.40;31.03;100118.59;5071479;28;45566;-72
2022/08/15 09:47:47;;;;;;;;;5.00;5.00;;;;;34.12;30.52;100119.28;5076002;28;47096;-72
2022/08/15 09:50:23;;;;;;;;;5.00;5.00;;;;;34.12;30.87;100122.06;5076153;28;45494;-71
2022/08/15 09:53:25;;;;;;;;;5.67;5.67;;;;;33.67;31.16;100118.88;5078531;28;45723;-71
2022/08/15 09:55:52;;;;;;;;;4.33;4.33;;;;;33.27;30.88;100111.97;5079986;27;45526;-72
2022/08/15 09:58:23;;;;;;;;;5.33;5.33;;;;;33.06;31.57;100112.41;5079507;28;46171;-72
2022/08/15 10:01:14;;;;;;;;;4.00;4.00;;;;;32.66;31.78;100105.38;5079274;28;45384;-72
2022/08/15 10:03:45;;;;;;;;;8.00;5.67;;;;;32.08;32.54;100122.22;5079894;28;45495;-71
2022/08/15 10:06:26;;;;;;;;;4.00;4.00;;;;;31.58;33.29;100114.66;5079730;28;45496;-72
2022/08/15 10:08:55;;;;;;;;;4.33;4.33;;;;;31.14;34.02;100119.06;5079373;28;47297;-71
2022/08/15 10:11:39;;;;;;;;;4.33;4.33;;;;;30.73;34.91;100122.13;5079182;27;45471;-71
2022/08/15 10:14:25;;;;;;;;;4.33;4.33;;;;;30.36;35.39;100124.47;5079222;28;45392;-71
2022/08/15 10:16:54;;;;;;;;;8.00;8.00;;;;;30.03;36.31;100117.88;5079899;27;45472;-71
2022/08/15 10:19:34;;;;;;;;;8.33;7.00;;;;;29.74;36.60;100116.34;5079119;28;46465;-71
2022/08/15 10:22:22;;;;;;;;;4.67;4.67;;;;;29.55;37.42;100112.47;5079559;28;45643;-71
2022/08/15 10:25:30;;;;;;;;;7.00;7.00;;;;;29.33;37.80;100120.00;5079002;28;45466;-71
2022/08/15 10:27:58;;;;;;;;;6.33;6.33;;;;;29.18;38.58;100122.88;5036634;28;45715;-71
2022/08/15 10:30:30;;;;;;;;;4.00;4.00;;;;;29.03;39.08;100133.09;5036031;28;46111;-71
2022/08/15 10:32:57;;;;;;;;;3.67;3.67;;;;;28.89;39.88;100137.66;5036302;28;45437;-71
2022/08/15 10:35:30;;;;;;;;;3.00;3.00;;;;;28.78;39.75;100130.88;5035994;28;45460;-70
2022/08/15 10:38:02;;;;;;;;;3.33;3.33;;;;;28.73;40.17;100127.88;5036964;28;45494;-70
2022/08/15 10:41:09;;;;;;;;;3.67;2.00;;;;;28.59;40.35;100128.84;5036066;28;47615;-71
2022/08/15 10:43:46;;;;;;;;;2.33;2.33;;;;;28.46;40.78;100136.94;5035860;28;45520;-71
2022/08/15 10:46:18;;;;;;;;;2.67;2.67;;;;;28.31;40.90;100140.63;5036159;28;45461;-71
2022/08/15 10:48:43;;;;;;;;;2.00;2.00;;;;;28.19;41.58;100134.81;5036633;28;45549;-70
2022/08/15 10:51:43;;;;;;;;;1.00;1.00;;;;;28.06;42.30;100133.84;5036119;28;46207;-70
2022/08/15 10:54:22;;;;;;;;;2.33;2.33;;;;;27.90;42.51;100135.78;5035975;28;45396;-71
2022/08/15 10:56:54;;;;;;;;;2.67;2.00;;;;;27.79;42.79;100139.00;5035698;28;45493;-70
2022/08/15 10:59:33;;;;;;;;;1.67;1.67;;;;;27.65;43.12;100137.16;5036013;28;45637;-71
2022/08/15 11:02:21;;;;;;;;;2.33;2.33;;;;;27.57;43.57;100141.72;5060140;28;45454;-70
2022/08/15 11:04:48;;;;;;;;;3.00;3.00;;;;;27.54;44.35;100135.81;5078761;28;45676;-71
2022/08/15 11:07:28;;;;;;;;;2.00;1.00;;;;;27.54;44.03;100127.59;5078468;28;45469;-71
2022/08/15 11:10:00;;;;;;;;;2.33;2.33;;;;;27.51;44.19;100126.09;5078779;27;45453;-70
2022/08/15 11:12:31;;;;;;;;;3.00;3.00;;;;;27.50;44.68;100132.59;5078134;27;45669;-71
2022/08/15 11:15:12;;;;;;;;;3.00;3.00;;;;;27.54;44.44;100138.53;5078522;27;45381;-70
2022/08/15 11:17:38;;;;;;;;;5.67;5.00;;;;;27.58;43.99;100137.97;5078518;28;45546;-72
2022/08/15 11:20:16;;;;;;;;;3.67;3.67;;;;;27.53;44.14;100129.47;5078684;28;45484;-71
2022/08/15 11:22:58;;;;;;;;;3.00;3.00;;;;;27.65;43.52;100143.53;5078196;27;45939;-70
2022/08/15 11:25:33;;;;;;;;;4.00;4.00;;;;;27.69;43.95;100136.59;5078403;27;45677;-70
2022/08/15 11:28:21;;;;;;;;;3.00;3.00;;;;;27.97;44.06;100144.91;5078044;28;45443;-71
2022/08/15 11:30:56;;;;;;;;;3.00;2.00;;;;;28.15;43.48;100147.22;5078819;27;45677;-71
2022/08/15 11:33:30;;;;;;;;;3.00;3.00;;;;;28.26;43.02;100147.72;5076880;28;45410;-71
2022/08/15 11:36:03;;;;;;;;;2.67;2.67;;;;;28.43;43.02;100146.41;5078033;28;45441;-71
2022/08/15 11:38:31;;;;;;;;;1.67;1.67;;;;;28.74;42.31;100142.44;5078042;28;45422;-71
2022/08/15 11:40:59;;;;;;;;;2.67;2.67;;;;;28.96;41.67;100134.97;5078065;27;45438;-71
2022/08/15 11:43:25;;;;;;;;;1.33;1.33;;;;;29.12;41.31;100140.16;5071454;28;45679;-71
2022/08/15 11:45:53;;;;;;;;;2.00;2.00;;;;;29.17;41.01;100126.69;5057631;28;45410;-71
2022/08/15 11:48:24;;;;;;;;;1.00;1.00;;;;;29.33;41.03;100141.09;5057778;28;45437;-71
2022/08/15 11:50:59;;;;;;;;;4.33;2.67;;;;;29.40;40.64;100133.75;5057945;28;45539;-71
2022/08/15 11:53:29;;;;;;;;;2.67;2.67;;;;;29.48;40.63;100143.69;5057274;28;47068;-71